sensor_id;sensor_type;location;lat;lon;timestamp;temperature;humidity
8178;DHT22;4130;48.740;9.132;2024-03-23T00:56:14;6.10;99.90
8178;DHT22;4130;48.740;9.132;2024-03-23T00:58:39;6.20;99.90
8178;DHT22;4130;48.740;9.132;2024-03-23T01:01:06;6.30;99.90
8178;DHT22;4130;48.740;9.132;2024-03-23T01:03:32;6.40;99.90
8178;DHT22;4130;48.740;9.132;2024-03-23T01:05:59;6.50;99.90
8178;DHT22;4130;48.740;9.132;2024-03-23T01:08:25;6.60;99.90
8178;DHT22;4130;48.740;9.132;2024-03-23T01:10:57;6.60;99.90
8178;DHT22;4130;48.740;9.132;2024-03-23T01:13:23;6.90;99.90
8178;DHT22;4130;48.740;9.132;2024-03-23T01:15:50;7.10;99.90
8178;DHT22;4130;48.740;9.132;2024-03-23T01:18:17;7.40;99.90
8178;DHT22;4130;48.740;9.132;2024-03-23T01:20:43;7.60;99.90
8178;DHT22;4130;48.740;9.132;2024-03-23T01:23:10;7.90;99.90
8178;DHT22;4130;48.740;9.132;2024-03-23T01:25:36;8.10;99.90
8178;DHT22;4130;48.740;9.132;2024-03-23T01:28:04;8.10;99.90
8178;DHT22;4130;48.740;9.132;2024-03-23T01:30:31;8.20;99.90
8178;DHT22;4130;48.740;9.132;2024-03-23T01:32:57;8.30;99.90
8178;DHT22;4130;48.740;9.132;2024-03-23T01:35:24;8.30;99.90
8178;DHT22;4130;48.740;9.132;2024-03-23T01:37:50;8.50;99.90
8178;DHT22;4130;48.740;9.132;2024-03-23T01:40:17;8.60;99.90
8178;DHT22;4130;48.740;9.132;2024-03-23T01:42:42;8.70;99.90
8178;DHT22;4130;48.740;9.132;2024-03-23T01:45:11;8.90;99.90
8178;DHT22;4130;48.740;9.132;2024-03-23T01:47:36;9.00;99.90
8178;DHT22;4130;48.740;9.132;2024-03-23T01:50:04;9.20;99.90
8178;DHT22;4130;48.740;9.132;2024-03-23T01:52:30;9.30;99.90
8178;DHT22;4130;48.740;9.132;2024-03-23T01:54:57;9.40;99.90
8178;DHT22;4130;48.740;9.132;2024-03-23T01:57:22;9.50;99.90
8178;DHT22;4130;48.740;9.132;2024-03-23T01:59:49;9.60;99.90
8178;DHT22;4130;48.740;9.132;2024-03-23T02:02:17;9.60;99.90
8178;DHT22;4130;48.740;9.132;2024-03-23T02:04:45;9.60;99.90
8178;DHT22;4130;48.740;9.132;2024-03-23T02:07:11;9.60;99.90
8178;DHT22;4130;48.740;9.132;2024-03-23T02:09:38;9.50;99.90
8178;DHT22;4130;48.740;9.132;2024-03-23T02:12:04;9.40;99.90
8178;DHT22;4130;48.740;9.132;2024-03-23T02:14:32;9.40;99.90
8178;DHT22;4130;48.740;9.132;2024-03-23T02:16:58;9.40;99.90
8178;DHT22;4130;48.740;9.132;2024-03-23T02:19:26;9.30;99.90
8178;DHT22;4130;48.740;9.132;2024-03-23T02:21:52;9.40;99.90
8178;DHT22;4130;48.740;9.132;2024-03-23T02:24:20;9.40;99.90
8178;DHT22;4130;48.740;9.132;2024-03-23T02:26:45;9.30;99.90
8178;DHT22;4130;48.740;9.132;2024-03-23T02:29:14;9.30;99.90
8178;DHT22;4130;48.740;9.132;2024-03-23T02:31:39;9.30;99.90
8178;DHT22;4130;48.740;9.132;2024-03-23T02:34:06;9.20;99.90
8178;DHT22;4130;48.740;9.132;2024-03-23T02:36:32;9.00;99.90
8178;DHT22;4130;48.740;9.132;2024-03-23T02:38:59;9.00;99.90
8178;DHT22;4130;48.740;9.132;2024-03-23T02:41:26;9.00;99.90
8178;DHT22;4130;48.740;9.132;2024-03-23T02:43:53;9.00;99.90
8178;DHT22;4130;48.740;9.132;2024-03-23T02:46:18;9.00;99.90
8178;DHT22;4130;48.740;9.132;2024-03-23T02:48:48;9.10;99.90
8178;DHT22;4130;48.740;9.132;2024-03-23T02:51:14;9.20;99.90
8178;DHT22;4130;48.740;9.132;2024-03-23T02:53:41;9.20;99.90
8178;DHT22;4130;48.740;9.132;2024-03-23T02:56:07;9.30;99.90
8178;DHT22;4130;48.740;9.132;2024-03-23T02:58:35;9.40;99.90
8178;DHT22;4130;48.740;9.132;2024-03-23T03:01:01;9.40;99.90
8178;DHT22;4130;48.740;9.132;2024-03-23T03:03:27;9.40;99.90
8178;DHT22;4130;48.740;9.132;2024-03-23T03:05:55;9.40;99.90
8178;DHT22;4130;48.740;9.132;2024-03-23T03:08:22;9.40;99.90
8178;DHT22;4130;48.740;9.132;2024-03-23T03:10:47;9.30;99.90
8178;DHT22;4130;48.740;9.132;2024-03-23T03:13:14;9.30;99.90
8178;DHT22;4130;48.740;9.132;2024-03-23T03:15:42;9.20;99.90
8178;DHT22;4130;48.740;9.132;2024-03-23T03:18:09;9.20;99.90
8178;DHT22;4130;48.740;9.132;2024-03-23T03:20:37;9.20;99.90
8178;DHT22;4130;48.740;9.132;2024-03-23T03:23:04;9.30;99.90
8178;DHT22;4130;48.740;9.132;2024-03-23T03:25:30;9.20;99.90
8178;DHT22;4130;48.740;9.132;2024-03-23T03:27:57;9.20;99.90
8178;DHT22;4130;48.740;9.132;2024-03-23T03:30:23;9.20;99.90
8178;DHT22;4130;48.740;9.132;2024-03-23T03:32:53;9.20;99.90
8178;DHT22;4130;48.740;9.132;2024-03-23T03:35:19;9.10;99.90
8178;DHT22;4130;48.740;9.132;2024-03-23T03:37:46;9.00;99.90
8178;DHT22;4130;48.740;9.132;2024-03-23T03:40:12;9.00;99.90
8178;DHT22;4130;48.740;9.132;2024-03-23T03:42:40;8.90;99.90
8178;DHT22;4130;48.740;9.132;2024-03-23T03:45:07;8.90;99.90
8178;DHT22;4130;48.740;9.132;2024-03-23T03:47:33;8.80;99.90
8178;DHT22;4130;48.740;9.132;2024-03-23T03:50:00;8.80;99.90
8178;DHT22;4130;48.740;9.132;2024-03-23T03:52:27;8.80;99.90
8178;DHT22;4130;48.740;9.132;2024-03-23T03:55:01;8.80;99.90
8178;DHT22;4130;48.740;9.132;2024-03-23T03:57:28;8.90;99.90
8178;DHT22;4130;48.740;9.132;2024-03-23T03:59:54;8.90;99.90
8178;DHT22;4130;48.740;9.132;2024-03-23T04:02:21;8.90;99.90
8178;DHT22;4130;48.740;9.132;2024-03-23T04:04:47;9.00;99.90
8178;DHT22;4130;48.740;9.132;2024-03-23T04:07:15;8.90;99.90
8178;DHT22;4130;48.740;9.132;2024-03-23T04:09:41;8.90;99.90
8178;DHT22;4130;48.740;9.132;2024-03-23T04:12:07;8.90;99.90
8178;DHT22;4130;48.740;9.132;2024-03-23T04:14:33;8.80;99.90
8178;DHT22;4130;48.740;9.132;2024-03-23T04:17:00;8.80;99.90
8178;DHT22;4130;48.740;9.132;2024-03-23T04:19:26;9.00;99.90
8178;DHT22;4130;48.740;9.132;2024-03-23T04:21:52;9.10;99.90
8178;DHT22;4130;48.740;9.132;2024-03-23T04:24:19;9.30;99.90
8178;DHT22;4130;48.740;9.132;2024-03-23T04:26:48;9.30;99.90
8178;DHT22;4130;48.740;9.132;2024-03-23T04:29:13;9.40;99.90
8178;DHT22;4130;48.740;9.132;2024-03-23T04:31:40;9.40;99.90
8178;DHT22;4130;48.740;9.132;2024-03-23T04:34:06;9.40;99.90
8178;DHT22;4130;48.740;9.132;2024-03-23T04:36:33;9.40;99.90
8178;DHT22;4130;48.740;9.132;2024-03-23T04:39:00;9.40;99.90
8178;DHT22;4130;48.740;9.132;2024-03-23T04:41:28;9.40;99.90
8178;DHT22;4130;48.740;9.132;2024-03-23T04:43:55;9.40;99.90
8178;DHT22;4130;48.740;9.132;2024-03-23T04:46:22;9.50;99.90
8178;DHT22;4130;48.740;9.132;2024-03-23T04:48:47;9.50;99.90
8178;DHT22;4130;48.740;9.132;2024-03-23T04:51:20;9.70;99.90
8178;DHT22;4130;48.740;9.132;2024-03-23T04:53:47;9.80;99.90
8178;DHT22;4130;48.740;9.132;2024-03-23T04:56:14;9.90;99.90
8178;DHT22;4130;48.740;9.132;2024-03-23T04:58:43;10.00;99.90
8178;DHT22;4130;48.740;9.132;2024-03-23T05:01:09;10.00;99.90
8178;DHT22;4130;48.740;9.132;2024-03-23T05:03:36;9.80;99.90
8178;DHT22;4130;48.740;9.132;2024-03-23T05:06:04;9.70;99.90
8178;DHT22;4130;48.740;9.132;2024-03-23T05:08:30;9.50;99.90
8178;DHT22;4130;48.740;9.132;2024-03-23T05:10:57;9.40;99.90
8178;DHT22;4130;48.740;9.132;2024-03-23T05:13:23;9.30;99.90
8178;DHT22;4130;48.740;9.132;2024-03-23T05:15:53;9.20;99.90
8178;DHT22;4130;48.740;9.132;2024-03-23T05:18:19;9.10;99.90
8178;DHT22;4130;48.740;9.132;2024-03-23T05:20:46;9.10;99.90
8178;DHT22;4130;48.740;9.132;2024-03-23T05:23:11;9.10;99.90
8178;DHT22;4130;48.740;9.132;2024-03-23T05:25:38;9.20;99.90
8178;DHT22;4130;48.740;9.132;2024-03-23T05:28:04;9.10;99.90
8178;DHT22;4130;48.740;9.132;2024-03-23T05:30:32;9.10;99.90
8178;DHT22;4130;48.740;9.132;2024-03-23T05:32:59;9.10;99.90
8178;DHT22;4130;48.740;9.132;2024-03-23T05:35:26;9.00;99.90
8178;DHT22;4130;48.740;9.132;2024-03-23T05:37:51;9.00;99.90
8178;DHT22;4130;48.740;9.132;2024-03-23T05:40:18;8.90;99.90
8178;DHT22;4130;48.740;9.132;2024-03-23T05:42:44;8.90;99.90
8178;DHT22;4130;48.740;9.132;2024-03-23T05:45:10;8.80;99.90
8178;DHT22;4130;48.740;9.132;2024-03-23T05:47:36;8.80;99.90
8178;DHT22;4130;48.740;9.132;2024-03-23T05:50:05;8.80;99.90
8178;DHT22;4130;48.740;9.132;2024-03-23T05:52:31;8.80;99.90
8178;DHT22;4130;48.740;9.132;2024-03-23T05:54:58;8.70;99.90
8178;DHT22;4130;48.740;9.132;2024-03-23T05:57:24;8.70;99.90
8178;DHT22;4130;48.740;9.132;2024-03-23T05:59:51;8.60;99.90
8178;DHT22;4130;48.740;9.132;2024-03-23T06:02:17;8.50;99.90
8178;DHT22;4130;48.740;9.132;2024-03-23T06:04:45;8.50;99.90
8178;DHT22;4130;48.740;9.132;2024-03-23T06:07:12;8.50;99.90
8178;DHT22;4130;48.740;9.132;2024-03-23T06:09:40;8.40;99.90
8178;DHT22;4130;48.740;9.132;2024-03-23T06:12:06;8.40;99.90
8178;DHT22;4130;48.740;9.132;2024-03-23T06:14:33;8.30;99.90
8178;DHT22;4130;48.740;9.132;2024-03-23T06:16:59;8.20;99.90
8178;DHT22;4130;48.740;9.132;2024-03-23T06:19:27;9.20;99.90
8178;DHT22;4130;48.740;9.132;2024-03-23T06:21:53;8.00;99.90
8178;DHT22;4130;48.740;9.132;2024-03-23T06:24:21;7.90;99.90
8178;DHT22;4130;48.740;9.132;2024-03-23T06:26:47;7.80;99.90
8178;DHT22;4130;48.740;9.132;2024-03-23T06:29:14;7.80;99.90
8178;DHT22;4130;48.740;9.132;2024-03-23T06:31:39;7.80;99.90
8178;DHT22;4130;48.740;9.132;2024-03-23T06:34:06;7.70;99.90
8178;DHT22;4130;48.740;9.132;2024-03-23T06:36:32;7.60;99.90
8178;DHT22;4130;48.740;9.132;2024-03-23T06:38:59;7.60;99.90
8178;DHT22;4130;48.740;9.132;2024-03-23T06:41:26;7.50;99.90
8178;DHT22;4130;48.740;9.132;2024-03-23T06:43:53;7.50;99.90
8178;DHT22;4130;48.740;9.132;2024-03-23T06:46:19;7.50;99.90
8178;DHT22;4130;48.740;9.132;2024-03-23T06:48:46;7.50;99.90
8178;DHT22;4130;48.740;9.132;2024-03-23T06:51:11;7.50;99.90
8178;DHT22;4130;48.740;9.132;2024-03-23T06:53:38;7.50;99.90
8178;DHT22;4130;48.740;9.132;2024-03-23T06:56:04;7.60;99.90
8178;DHT22;4130;48.740;9.132;2024-03-23T06:58:32;7.60;99.90
8178;DHT22;4130;48.740;9.132;2024-03-23T07:00:58;7.60;99.90
8178;DHT22;4130;48.740;9.132;2024-03-23T07:03:25;7.70;99.90
8178;DHT22;4130;48.740;9.132;2024-03-23T07:05:51;7.80;99.90
8178;DHT22;4130;48.740;9.132;2024-03-23T07:08:18;7.80;99.90
8178;DHT22;4130;48.740;9.132;2024-03-23T07:10:47;8.00;99.90
8178;DHT22;4130;48.740;9.132;2024-03-23T07:13:14;8.10;99.90
8178;DHT22;4130;48.740;9.132;2024-03-23T07:15:41;8.10;99.90
8178;DHT22;4130;48.740;9.132;2024-03-23T07:18:08;8.20;99.90
8178;DHT22;4130;48.740;9.132;2024-03-23T07:20:34;8.10;99.90
8178;DHT22;4130;48.740;9.132;2024-03-23T07:23:01;8.20;99.90
8178;DHT22;4130;48.740;9.132;2024-03-23T07:25:26;8.30;99.90
8178;DHT22;4130;48.740;9.132;2024-03-23T07:27:54;8.40;99.90
8178;DHT22;4130;48.740;9.132;2024-03-23T07:30:20;8.50;99.90
8178;DHT22;4130;48.740;9.132;2024-03-23T07:32:48;8.60;99.90
8178;DHT22;4130;48.740;9.132;2024-03-23T07:35:14;8.60;99.90
8178;DHT22;4130;48.740;9.132;2024-03-23T07:37:41;8.60;99.90
8178;DHT22;4130;48.740;9.132;2024-03-23T07:40:08;8.60;99.90
8178;DHT22;4130;48.740;9.132;2024-03-23T07:42:35;8.50;99.90
8178;DHT22;4130;48.740;9.132;2024-03-23T07:45:01;8.40;99.90
8178;DHT22;4130;48.740;9.132;2024-03-23T07:47:28;8.30;99.90
8178;DHT22;4130;48.740;9.132;2024-03-23T07:49:56;8.20;99.90
8178;DHT22;4130;48.740;9.132;2024-03-23T07:52:23;8.20;99.90
8178;DHT22;4130;48.740;9.132;2024-03-23T07:54:49;8.20;99.90
8178;DHT22;4130;48.740;9.132;2024-03-23T07:57:16;8.20;99.90
8178;DHT22;4130;48.740;9.132;2024-03-23T07:59:42;8.10;99.90
8178;DHT22;4130;48.740;9.132;2024-03-23T08:02:09;8.10;99.90
8178;DHT22;4130;48.740;9.132;2024-03-23T08:04:36;8.10;99.90
8178;DHT22;4130;48.740;9.132;2024-03-23T08:07:04;8.20;99.90
8178;DHT22;4130;48.740;9.132;2024-03-23T08:09:30;8.30;99.90
8178;DHT22;4130;48.740;9.132;2024-03-23T08:11:57;8.10;99.90
8178;DHT22;4130;48.740;9.132;2024-03-23T08:14:23;7.30;99.90
8178;DHT22;4130;48.740;9.132;2024-03-23T08:16:52;7.30;99.90
8178;DHT22;4130;48.740;9.132;2024-03-23T08:19:22;7.20;99.90
8178;DHT22;4130;48.740;9.132;2024-03-23T08:21:49;7.20;99.90
8178;DHT22;4130;48.740;9.132;2024-03-23T08:24:18;7.40;99.90
8178;DHT22;4130;48.740;9.132;2024-03-23T08:26:45;7.40;99.90
8178;DHT22;4130;48.740;9.132;2024-03-23T08:29:10;7.40;99.90
8178;DHT22;4130;48.740;9.132;2024-03-23T08:31:37;7.30;99.90
8178;DHT22;4130;48.740;9.132;2024-03-23T08:34:03;7.40;99.90
8178;DHT22;4130;48.740;9.132;2024-03-23T08:36:30;7.40;99.90
8178;DHT22;4130;48.740;9.132;2024-03-23T08:38:56;7.30;99.90
8178;DHT22;4130;48.740;9.132;2024-03-23T08:41:24;7.30;99.90
8178;DHT22;4130;48.740;9.132;2024-03-23T08:43:50;7.60;99.90
8178;DHT22;4130;48.740;9.132;2024-03-23T08:46:18;7.50;99.90
8178;DHT22;4130;48.740;9.132;2024-03-23T08:48:45;7.70;99.90
8178;DHT22;4130;48.740;9.132;2024-03-23T08:51:15;7.90;99.90
8178;DHT22;4130;48.740;9.132;2024-03-23T08:53:42;7.90;99.90
8178;DHT22;4130;48.740;9.132;2024-03-23T08:56:10;8.80;99.90
8178;DHT22;4130;48.740;9.132;2024-03-23T08:58:38;8.10;99.90
8178;DHT22;4130;48.740;9.132;2024-03-23T09:01:06;8.00;99.90
8178;DHT22;4130;48.740;9.132;2024-03-23T09:03:32;8.10;99.90
8178;DHT22;4130;48.740;9.132;2024-03-23T09:06:01;8.00;99.90
8178;DHT22;4130;48.740;9.132;2024-03-23T09:08:27;8.10;99.90
8178;DHT22;4130;48.740;9.132;2024-03-23T09:10:53;8.20;99.90
8178;DHT22;4130;48.740;9.132;2024-03-23T09:13:20;8.10;99.90
8178;DHT22;4130;48.740;9.132;2024-03-23T09:15:49;8.10;99.90
8178;DHT22;4130;48.740;9.132;2024-03-23T09:18:15;8.10;99.90
8178;DHT22;4130;48.740;9.132;2024-03-23T09:20:42;8.30;99.90
8178;DHT22;4130;48.740;9.132;2024-03-23T09:23:08;8.40;99.90
8178;DHT22;4130;48.740;9.132;2024-03-23T09:25:38;8.60;99.90
8178;DHT22;4130;48.740;9.132;2024-03-23T09:28:05;8.70;99.90
8178;DHT22;4130;48.740;9.132;2024-03-23T09:30:32;8.60;99.90
8178;DHT22;4130;48.740;9.132;2024-03-23T09:33:00;8.40;99.90
8178;DHT22;4130;48.740;9.132;2024-03-23T09:35:27;8.20;99.90
8178;DHT22;4130;48.740;9.132;2024-03-23T09:37:53;8.10;99.90
8178;DHT22;4130;48.740;9.132;2024-03-23T09:40:31;8.20;99.90
8178;DHT22;4130;48.740;9.132;2024-03-23T09:42:58;8.80;99.90
8178;DHT22;4130;48.740;9.132;2024-03-23T09:45:27;9.00;99.90
8178;DHT22;4130;48.740;9.132;2024-03-23T09:47:54;9.20;99.90
8178;DHT22;4130;48.740;9.132;2024-03-23T09:50:22;9.20;99.90
8178;DHT22;4130;48.740;9.132;2024-03-23T09:52:48;9.10;99.90
8178;DHT22;4130;48.740;9.132;2024-03-23T09:55:15;9.20;99.90
8178;DHT22;4130;48.740;9.132;2024-03-23T09:57:41;9.20;99.90
8178;DHT22;4130;48.740;9.132;2024-03-23T10:00:09;8.90;99.90
8178;DHT22;4130;48.740;9.132;2024-03-23T10:02:35;8.90;99.90
8178;DHT22;4130;48.740;9.132;2024-03-23T10:05:02;8.90;99.90
8178;DHT22;4130;48.740;9.132;2024-03-23T10:07:29;8.90;99.90
8178;DHT22;4130;48.740;9.132;2024-03-23T10:09:56;8.90;99.90
8178;DHT22;4130;48.740;9.132;2024-03-23T10:12:24;8.70;99.90
8178;DHT22;4130;48.740;9.132;2024-03-23T10:14:50;8.60;99.90
8178;DHT22;4130;48.740;9.132;2024-03-23T10:17:17;8.60;99.90
8178;DHT22;4130;48.740;9.132;2024-03-23T10:19:45;8.80;99.90
8178;DHT22;4130;48.740;9.132;2024-03-23T10:22:14;8.90;99.90
8178;DHT22;4130;48.740;9.132;2024-03-23T10:24:42;9.00;99.90
8178;DHT22;4130;48.740;9.132;2024-03-23T10:27:08;9.20;99.90
8178;DHT22;4130;48.740;9.132;2024-03-23T10:29:35;9.20;99.90
8178;DHT22;4130;48.740;9.132;2024-03-23T10:32:11;9.20;99.90
8178;DHT22;4130;48.740;9.132;2024-03-23T10:34:38;9.40;99.90
8178;DHT22;4130;48.740;9.132;2024-03-23T10:37:06;9.80;99.90
8178;DHT22;4130;48.740;9.132;2024-03-23T10:39:37;10.10;98.60
8178;DHT22;4130;48.740;9.132;2024-03-23T10:42:05;10.00;98.40
8178;DHT22;4130;48.740;9.132;2024-03-23T10:44:33;10.00;98.90
8178;DHT22;4130;48.740;9.132;2024-03-23T10:47:00;10.10;98.30
8178;DHT22;4130;48.740;9.132;2024-03-23T10:49:28;9.80;97.60
8178;DHT22;4130;48.740;9.132;2024-03-23T10:51:56;9.60;97.90
8178;DHT22;4130;48.740;9.132;2024-03-23T10:54:24;9.20;97.80
8178;DHT22;4130;48.740;9.132;2024-03-23T10:56:52;8.70;99.60
8178;DHT22;4130;48.740;9.132;2024-03-23T10:59:21;7.90;99.90
8178;DHT22;4130;48.740;9.132;2024-03-23T11:01:57;7.00;99.90
8178;DHT22;4130;48.740;9.132;2024-03-23T11:04:30;6.20;99.90
8178;DHT22;4130;48.740;9.132;2024-03-23T11:06:57;5.40;99.90
8178;DHT22;4130;48.740;9.132;2024-03-23T11:09:39;5.00;99.90
8178;DHT22;4130;48.740;9.132;2024-03-23T11:12:25;4.80;99.90
8178;DHT22;4130;48.740;9.132;2024-03-23T11:14:57;5.20;99.90
8178;DHT22;4130;48.740;9.132;2024-03-23T11:17:25;5.70;99.90
8178;DHT22;4130;48.740;9.132;2024-03-23T11:19:57;6.00;99.90
8178;DHT22;4130;48.740;9.132;2024-03-23T11:22:39;6.20;99.90
8178;DHT22;4130;48.740;9.132;2024-03-23T11:25:13;6.40;99.90
8178;DHT22;4130;48.740;9.132;2024-03-23T11:27:39;6.50;99.90
8178;DHT22;4130;48.740;9.132;2024-03-23T11:30:15;6.60;99.90
8178;DHT22;4130;48.740;9.132;2024-03-23T11:32:42;6.80;99.90
8178;DHT22;4130;48.740;9.132;2024-03-23T11:35:09;7.00;99.90
8178;DHT22;4130;48.740;9.132;2024-03-23T11:37:36;7.20;99.90
8178;DHT22;4130;48.740;9.132;2024-03-23T11:40:21;7.40;99.90
8178;DHT22;4130;48.740;9.132;2024-03-23T11:42:49;7.80;99.90
8178;DHT22;4130;48.740;9.132;2024-03-23T11:45:23;8.10;99.90
8178;DHT22;4130;48.740;9.132;2024-03-23T11:47:49;8.50;99.90
8178;DHT22;4130;48.740;9.132;2024-03-23T11:50:27;8.80;99.90
8178;DHT22;4130;48.740;9.132;2024-03-23T11:53:06;9.40;99.90
8178;DHT22;4130;48.740;9.132;2024-03-23T11:55:39;8.80;99.90
8178;DHT22;4130;48.740;9.132;2024-03-23T11:58:05;8.80;99.90
8178;DHT22;4130;48.740;9.132;2024-03-23T12:00:34;8.70;99.90
8178;DHT22;4130;48.740;9.132;2024-03-23T12:03:01;8.70;99.90
8178;DHT22;4130;48.740;9.132;2024-03-23T12:05:28;8.90;99.90
8178;DHT22;4130;48.740;9.132;2024-03-23T12:07:54;9.00;99.90
8178;DHT22;4130;48.740;9.132;2024-03-23T12:10:21;8.90;99.90
8178;DHT22;4130;48.740;9.132;2024-03-23T12:12:59;8.90;99.90
8178;DHT22;4130;48.740;9.132;2024-03-23T12:15:27;9.00;99.90
8178;DHT22;4130;48.740;9.132;2024-03-23T12:18:07;8.80;99.90
8178;DHT22;4130;48.740;9.132;2024-03-23T12:20:34;8.80;99.90
8178;DHT22;4130;48.740;9.132;2024-03-23T12:23:10;8.90;99.90
8178;DHT22;4130;48.740;9.132;2024-03-23T12:25:38;8.90;99.90
8178;DHT22;4130;48.740;9.132;2024-03-23T12:28:05;8.90;99.90
8178;DHT22;4130;48.740;9.132;2024-03-23T12:30:35;8.80;99.50
8178;DHT22;4130;48.740;9.132;2024-03-23T12:33:02;8.80;99.00
8178;DHT22;4130;48.740;9.132;2024-03-23T12:35:30;8.60;98.90
8178;DHT22;4130;48.740;9.132;2024-03-23T12:37:56;8.60;99.90
8178;DHT22;4130;48.740;9.132;2024-03-23T12:40:23;8.60;99.70
8178;DHT22;4130;48.740;9.132;2024-03-23T12:42:49;9.20;98.60
8178;DHT22;4130;48.740;9.132;2024-03-23T12:45:16;8.50;98.90
8178;DHT22;4130;48.740;9.132;2024-03-23T12:47:42;8.40;99.00
8178;DHT22;4130;48.740;9.132;2024-03-23T12:50:09;8.40;99.20
8178;DHT22;4130;48.740;9.132;2024-03-23T12:52:36;8.30;98.90
8178;DHT22;4130;48.740;9.132;2024-03-23T12:55:04;8.10;98.60
8178;DHT22;4130;48.740;9.132;2024-03-23T12:57:31;8.00;98.50
8178;DHT22;4130;48.740;9.132;2024-03-23T12:59:58;8.10;98.60
8178;DHT22;4130;48.740;9.132;2024-03-23T13:02:24;8.30;98.90
8178;DHT22;4130;48.740;9.132;2024-03-23T13:04:57;8.30;99.00
8178;DHT22;4130;48.740;9.132;2024-03-23T13:07:23;8.40;97.90
8178;DHT22;4130;48.740;9.132;2024-03-23T13:09:52;8.40;98.10
8178;DHT22;4130;48.740;9.132;2024-03-23T13:12:18;8.40;98.30
8178;DHT22;4130;48.740;9.132;2024-03-23T13:14:45;8.40;98.20
8178;DHT22;4130;48.740;9.132;2024-03-23T13:17:11;8.50;98.20
8178;DHT22;4130;48.740;9.132;2024-03-23T13:19:38;8.60;99.10
8178;DHT22;4130;48.740;9.132;2024-03-23T13:22:05;9.30;98.70
8178;DHT22;4130;48.740;9.132;2024-03-23T13:24:32;9.50;99.00
8178;DHT22;4130;48.740;9.132;2024-03-23T13:27:00;9.70;97.60
8178;DHT22;4130;48.740;9.132;2024-03-23T13:29:27;9.60;96.60
8178;DHT22;4130;48.740;9.132;2024-03-23T13:31:53;9.40;95.20
8178;DHT22;4130;48.740;9.132;2024-03-23T13:34:20;9.30;94.00
8178;DHT22;4130;48.740;9.132;2024-03-23T13:36:46;9.30;94.40
8178;DHT22;4130;48.740;9.132;2024-03-23T13:39:14;9.20;93.70
8178;DHT22;4130;48.740;9.132;2024-03-23T13:41:41;9.30;91.80
8178;DHT22;4130;48.740;9.132;2024-03-23T13:44:10;9.30;92.20
8178;DHT22;4130;48.740;9.132;2024-03-23T13:46:36;9.30;91.70
8178;DHT22;4130;48.740;9.132;2024-03-23T13:49:03;9.30;92.40
8178;DHT22;4130;48.740;9.132;2024-03-23T13:51:29;9.20;91.50
8178;DHT22;4130;48.740;9.132;2024-03-23T13:53:59;9.20;93.30
8178;DHT22;4130;48.740;9.132;2024-03-23T13:56:26;9.30;93.20
8178;DHT22;4130;48.740;9.132;2024-03-23T13:58:54;9.20;92.50
8178;DHT22;4130;48.740;9.132;2024-03-23T14:01:21;8.90;92.80
8178;DHT22;4130;48.740;9.132;2024-03-23T14:03:48;8.80;93.00
8178;DHT22;4130;48.740;9.132;2024-03-23T14:06:15;8.70;93.60
8178;DHT22;4130;48.740;9.132;2024-03-23T14:08:42;8.80;93.80
8178;DHT22;4130;48.740;9.132;2024-03-23T14:11:09;8.80;94.00
8178;DHT22;4130;48.740;9.132;2024-03-23T14:13:36;8.60;94.50
8178;DHT22;4130;48.740;9.132;2024-03-23T14:16:02;8.20;95.60
8178;DHT22;4130;48.740;9.132;2024-03-23T14:18:30;7.70;96.80
8178;DHT22;4130;48.740;9.132;2024-03-23T14:20:58;7.10;98.70
8178;DHT22;4130;48.740;9.132;2024-03-23T14:23:25;6.70;99.90
8178;DHT22;4130;48.740;9.132;2024-03-23T14:25:56;6.50;99.90
8178;DHT22;4130;48.740;9.132;2024-03-23T14:28:23;6.70;99.90
8178;DHT22;4130;48.740;9.132;2024-03-23T14:30:49;7.00;99.90
8178;DHT22;4130;48.740;9.132;2024-03-23T14:33:16;7.00;99.90
8178;DHT22;4130;48.740;9.132;2024-03-23T14:35:51;6.80;99.90
8178;DHT22;4130;48.740;9.132;2024-03-23T14:38:18;6.60;99.90
8178;DHT22;4130;48.740;9.132;2024-03-23T14:40:44;6.60;99.90
8178;DHT22;4130;48.740;9.132;2024-03-23T14:43:11;6.50;99.90
8178;DHT22;4130;48.740;9.132;2024-03-23T14:45:37;6.60;99.90
8178;DHT22;4130;48.740;9.132;2024-03-23T14:48:04;6.70;99.90
8178;DHT22;4130;48.740;9.132;2024-03-23T14:50:30;6.70;99.90
8178;DHT22;4130;48.740;9.132;2024-03-23T14:52:58;6.80;99.90
8178;DHT22;4130;48.740;9.132;2024-03-23T14:55:24;6.80;99.90
8178;DHT22;4130;48.740;9.132;2024-03-23T14:57:51;6.80;99.90
8178;DHT22;4130;48.740;9.132;2024-03-23T15:00:17;6.90;99.90
8178;DHT22;4130;48.740;9.132;2024-03-23T15:02:44;6.90;99.90
8178;DHT22;4130;48.740;9.132;2024-03-23T15:05:10;6.60;99.90
8178;DHT22;4130;48.740;9.132;2024-03-23T15:07:37;6.00;99.90
8178;DHT22;4130;48.740;9.132;2024-03-23T15:10:06;5.70;99.90
8178;DHT22;4130;48.740;9.132;2024-03-23T15:12:33;5.60;99.90
8178;DHT22;4130;48.740;9.132;2024-03-23T15:14:59;5.40;99.90
8178;DHT22;4130;48.740;9.132;2024-03-23T15:17:26;5.40;99.90
8178;DHT22;4130;48.740;9.132;2024-03-23T15:19:52;5.50;99.90
8178;DHT22;4130;48.740;9.132;2024-03-23T15:22:19;5.50;99.90
8178;DHT22;4130;48.740;9.132;2024-03-23T15:24:46;5.50;99.90
8178;DHT22;4130;48.740;9.132;2024-03-23T15:27:14;5.60;99.90
8178;DHT22;4130;48.740;9.132;2024-03-23T15:29:39;5.70;99.90
8178;DHT22;4130;48.740;9.132;2024-03-23T15:32:10;5.60;99.90
8178;DHT22;4130;48.740;9.132;2024-03-23T15:34:36;5.70;99.90
8178;DHT22;4130;48.740;9.132;2024-03-23T15:37:03;5.80;99.90
8178;DHT22;4130;48.740;9.132;2024-03-23T15:39:29;5.80;99.90
8178;DHT22;4130;48.740;9.132;2024-03-23T15:41:57;5.80;99.90
8178;DHT22;4130;48.740;9.132;2024-03-23T15:44:24;5.90;99.90
8178;DHT22;4130;48.740;9.132;2024-03-23T15:46:51;5.90;99.90
8178;DHT22;4130;48.740;9.132;2024-03-23T15:49:16;6.00;99.90
8178;DHT22;4130;48.740;9.132;2024-03-23T15:51:43;6.20;99.90
8178;DHT22;4130;48.740;9.132;2024-03-23T15:54:09;6.10;99.90
8178;DHT22;4130;48.740;9.132;2024-03-23T15:56:36;6.10;99.90
8178;DHT22;4130;48.740;9.132;2024-03-23T15:59:02;6.00;99.90
8178;DHT22;4130;48.740;9.132;2024-03-23T16:01:33;5.90;99.90
8178;DHT22;4130;48.740;9.132;2024-03-23T16:03:59;5.90;99.90
8178;DHT22;4130;48.740;9.132;2024-03-23T16:06:26;6.10;99.90
8178;DHT22;4130;48.740;9.132;2024-03-23T16:08:52;6.30;99.90
8178;DHT22;4130;48.740;9.132;2024-03-23T16:11:19;6.40;99.90
8178;DHT22;4130;48.740;9.132;2024-03-23T16:13:45;6.50;99.90
8178;DHT22;4130;48.740;9.132;2024-03-23T16:16:13;6.40;99.90
8178;DHT22;4130;48.740;9.132;2024-03-23T16:18:40;6.40;99.90
8178;DHT22;4130;48.740;9.132;2024-03-23T16:21:09;6.20;99.90
8178;DHT22;4130;48.740;9.132;2024-03-23T16:23:35;6.10;99.90
8178;DHT22;4130;48.740;9.132;2024-03-23T16:26:03;6.00;99.90
8178;DHT22;4130;48.740;9.132;2024-03-23T16:28:30;6.00;99.90
8178;DHT22;4130;48.740;9.132;2024-03-23T16:30:58;5.90;99.90
8178;DHT22;4130;48.740;9.132;2024-03-23T16:33:25;5.90;99.90
8178;DHT22;4130;48.740;9.132;2024-03-23T16:36:00;5.90;99.90
8178;DHT22;4130;48.740;9.132;2024-03-23T16:38:27;5.90;99.90
8178;DHT22;4130;48.740;9.132;2024-03-23T16:40:59;5.90;99.90
8178;DHT22;4130;48.740;9.132;2024-03-23T16:43:25;6.00;99.90
8178;DHT22;4130;48.740;9.132;2024-03-23T16:45:53;5.90;99.90
8178;DHT22;4130;48.740;9.132;2024-03-23T16:48:19;5.70;99.90
8178;DHT22;4130;48.740;9.132;2024-03-23T16:50:46;5.60;99.90
8178;DHT22;4130;48.740;9.132;2024-03-23T16:53:14;5.40;99.90
8178;DHT22;4130;48.740;9.132;2024-03-23T16:55:41;5.30;99.90
8178;DHT22;4130;48.740;9.132;2024-03-23T16:58:06;5.20;99.90
8178;DHT22;4130;48.740;9.132;2024-03-23T17:00:33;5.20;99.90
8178;DHT22;4130;48.740;9.132;2024-03-23T17:02:59;5.30;99.90
8178;DHT22;4130;48.740;9.132;2024-03-23T17:05:26;5.30;99.90
8178;DHT22;4130;48.740;9.132;2024-03-23T17:07:52;5.20;99.90
8178;DHT22;4130;48.740;9.132;2024-03-23T17:10:22;5.10;99.90
8178;DHT22;4130;48.740;9.132;2024-03-23T17:12:48;5.00;99.90